createdAt,value
2022-09-09T00:02:05.488Z,23.90
2022-09-09T00:04:35.068Z,23.90
2022-09-09T00:07:06.751Z,23.90
2022-09-09T00:09:42.686Z,23.90
2022-09-09T00:12:14.877Z,23.90
2022-09-09T00:14:52.276Z,23.90
2022-09-09T00:17:29.014Z,23.90
2022-09-09T00:20:04.165Z,23.90
2022-09-09T00:22:34.105Z,23.90
2022-09-09T00:25:12.535Z,23.90
2022-09-09T00:27:46.539Z,23.90
2022-09-09T00:30:23.189Z,23.90
2022-09-09T00:32:52.545Z,23.90
2022-09-09T00:35:25.999Z,23.90
2022-09-09T00:37:56.420Z,23.90
2022-09-09T00:40:34.157Z,23.90
2022-09-09T00:43:19.705Z,23.90
2022-09-09T00:46:17.119Z,23.90
2022-09-09T00:48:53.155Z,23.90
2022-09-09T00:51:31.675Z,23.90
2022-09-09T00:54:20.907Z,23.90
2022-09-09T00:56:58.943Z,23.90
2022-09-09T00:59:37.263Z,23.80
2022-09-09T01:02:15.832Z,23.90
2022-09-09T01:04:45.318Z,23.80
2022-09-09T01:07:19.267Z,23.80
2022-09-09T01:09:56.635Z,23.90
2022-09-09T01:12:41.883Z,23.80
2022-09-09T01:15:17.217Z,23.80
2022-09-09T01:17:55.397Z,23.80
2022-09-09T01:20:27.429Z,23.80
2022-09-09T01:23:08.006Z,23.80
2022-09-09T01:26:17.846Z,23.80
2022-09-09T01:28:48.167Z,23.80
2022-09-09T01:31:19.907Z,23.80
2022-09-09T01:33:48.122Z,23.80
2022-09-09T01:36:26.563Z,23.80
2022-09-09T01:38:55.332Z,23.80
2022-09-09T01:41:24.449Z,23.80
2022-09-09T01:43:52.834Z,23.80
2022-09-09T01:46:23.533Z,23.80
2022-09-09T01:48:53.085Z,23.80
2022-09-09T01:51:21.215Z,23.80
2022-09-09T01:53:49.412Z,23.80
2022-09-09T01:56:32.770Z,23.80
2022-09-09T01:59:11.183Z,23.80
2022-09-09T02:01:54.618Z,23.80
2022-09-09T02:04:37.757Z,23.80
2022-09-09T02:07:14.894Z,23.80
2022-09-09T02:09:46.516Z,23.80
2022-09-09T02:12:19.237Z,23.80
2022-09-09T02:14:52.702Z,23.80
2022-09-09T02:17:26.469Z,23.80
2022-09-09T02:20:00.306Z,23.80
2022-09-09T02:22:29.744Z,23.80
2022-09-09T02:25:00.569Z,23.80
2022-09-09T02:27:30.304Z,23.80
2022-09-09T02:30:01.427Z,23.80
2022-09-09T02:32:31.492Z,23.80
2022-09-09T02:35:04.069Z,23.80
2022-09-09T02:37:37.524Z,23.80
2022-09-09T02:40:06.377Z,23.80
2022-09-09T02:42:40.945Z,23.80
2022-09-09T02:45:10.561Z,23.80
2022-09-09T02:47:41.289Z,23.80
2022-09-09T02:50:14.776Z,23.80
2022-09-09T02:52:54.876Z,23.80
2022-09-09T02:55:30.373Z,23.70
2022-09-09T02:58:01.335Z,23.80
2022-09-09T03:00:29.960Z,23.70
2022-09-09T03:02:58.017Z,23.70
2022-09-09T03:05:26.302Z,23.70
2022-09-09T03:07:54.133Z,23.70
2022-09-09T03:10:21.968Z,23.70
2022-09-09T03:12:49.766Z,23.70
2022-09-09T03:15:19.192Z,23.70
2022-09-09T03:17:47.196Z,23.70
2022-09-09T03:20:15.160Z,23.70
2022-09-09T03:22:43.040Z,23.70
2022-09-09T03:25:11.042Z,23.70
2022-09-09T03:27:38.863Z,23.70
2022-09-09T03:30:07.500Z,23.70
2022-09-09T03:32:36.939Z,23.70
2022-09-09T03:35:05.566Z,23.70
2022-09-09T03:37:33.381Z,23.70
2022-09-09T03:40:01.622Z,23.70
2022-09-09T03:42:29.484Z,23.70
2022-09-09T03:44:58.757Z,23.70
2022-09-09T03:47:26.603Z,23.70
2022-09-09T03:49:55.820Z,23.70
2022-09-09T03:52:25.962Z,23.70
2022-09-09T03:54:54.028Z,23.70
2022-09-09T03:57:22.615Z,23.60
2022-09-09T03:59:50.457Z,23.60
2022-09-09T04:02:18.287Z,23.60
2022-09-09T04:04:46.150Z,23.60
2022-09-09T04:07:15.580Z,23.60
2022-09-09T04:09:43.439Z,23.60
2022-09-09T04:12:14.459Z,23.60
2022-09-09T04:14:42.408Z,23.60
2022-09-09T04:17:10.212Z,23.60
2022-09-09T04:19:38.030Z,23.60
2022-09-09T04:22:05.999Z,23.60
2022-09-09T04:24:36.229Z,23.60
2022-09-09T04:27:04.308Z,23.60
2022-09-09T04:29:32.096Z,23.60
2022-09-09T04:31:59.952Z,23.60
2022-09-09T04:34:27.822Z,23.60
2022-09-09T04:36:56.140Z,23.60
2022-09-09T04:39:23.928Z,23.60
2022-09-09T04:41:54.104Z,23.60
2022-09-09T04:44:21.882Z,23.60
2022-09-09T04:46:49.727Z,23.60
2022-09-09T04:49:17.585Z,23.60
2022-09-09T04:51:45.449Z,23.60
2022-09-09T04:54:13.451Z,23.60
2022-09-09T04:56:43.057Z,23.60
2022-09-09T04:59:12.266Z,23.60
2022-09-09T05:01:40.121Z,23.60
2022-09-09T05:04:07.996Z,23.60
2022-09-09T05:06:37.061Z,23.60
2022-09-09T05:09:05.041Z,23.60
2022-09-09T05:11:37.567Z,23.60
2022-09-09T05:14:05.592Z,23.60
2022-09-09T05:16:35.214Z,23.50
2022-09-09T05:19:04.137Z,23.50
2022-09-09T05:21:32.383Z,23.50
2022-09-09T05:24:01.501Z,23.50
2022-09-09T05:26:30.364Z,23.50
2022-09-09T05:28:59.918Z,23.50
2022-09-09T05:31:29.291Z,23.50
2022-09-09T05:33:59.864Z,23.50
2022-09-09T05:36:27.703Z,23.50
2022-09-09T05:38:55.554Z,23.50
2022-09-09T05:41:23.989Z,23.50
2022-09-09T05:43:52.067Z,23.50
2022-09-09T05:46:22.070Z,23.50
2022-09-09T05:48:52.411Z,23.50
2022-09-09T05:51:25.047Z,23.50
2022-09-09T05:53:53.177Z,23.50
2022-09-09T05:56:23.326Z,23.50
2022-09-09T05:58:52.649Z,23.50
2022-09-09T06:01:22.891Z,23.50
2022-09-09T06:03:51.681Z,23.50
2022-09-09T06:06:22.727Z,23.50
2022-09-09T06:08:52.828Z,23.50
2022-09-09T06:11:22.653Z,23.50
2022-09-09T06:13:52.549Z,23.50
2022-09-09T06:16:23.953Z,23.50
2022-09-09T06:18:52.721Z,23.50
2022-09-09T06:21:24.481Z,23.50
2022-09-09T06:23:57.761Z,23.50
2022-09-09T06:26:29.914Z,23.50
2022-09-09T06:28:58.859Z,23.40
2022-09-09T06:31:31.267Z,23.40
2022-09-09T06:34:01.365Z,23.40
2022-09-09T06:36:32.278Z,23.40
2022-09-09T06:39:00.816Z,23.40
2022-09-09T06:41:29.882Z,23.40
2022-09-09T06:43:57.735Z,23.40
2022-09-09T06:46:29.024Z,23.40
2022-09-09T06:48:59.771Z,23.40
2022-09-09T06:51:31.076Z,23.40
2022-09-09T06:54:00.914Z,23.40
2022-09-09T06:56:30.116Z,23.40
2022-09-09T06:58:59.875Z,23.40
2022-09-09T07:01:31.328Z,23.40
2022-09-09T07:04:00.728Z,23.40
2022-09-09T07:06:31.826Z,23.40
2022-09-09T07:09:01.659Z,23.40
2022-09-09T07:11:32.346Z,23.40
2022-09-09T07:14:01.460Z,23.40
2022-09-09T07:16:30.485Z,23.40
2022-09-09T07:18:59.119Z,23.40
2022-09-09T07:21:28.240Z,23.40
2022-09-09T07:23:57.516Z,23.40
2022-09-09T07:26:27.887Z,23.40
2022-09-09T07:28:57.045Z,23.40
2022-09-09T07:31:27.119Z,23.40
2022-09-09T07:33:55.723Z,23.40
2022-09-09T07:36:31.286Z,23.40
2022-09-09T07:39:05.266Z,23.40
2022-09-09T07:41:35.320Z,23.40
2022-09-09T07:44:07.503Z,23.40
2022-09-09T07:46:36.404Z,23.40
2022-09-09T07:49:04.718Z,23.40
2022-09-09T07:51:34.859Z,23.40
2022-09-09T07:54:06.045Z,23.40
2022-09-09T07:56:34.696Z,23.40
2022-09-09T07:59:02.672Z,23.40
2022-09-09T08:01:32.814Z,23.40
2022-09-09T08:04:03.311Z,23.30
2022-09-09T08:06:34.034Z,23.30
2022-09-09T08:09:03.175Z,23.30
2022-09-09T08:11:38.634Z,23.30
2022-09-09T08:14:08.333Z,23.30
2022-09-09T08:16:37.923Z,23.30
2022-09-09T08:19:08.285Z,23.30
2022-09-09T08:21:38.351Z,23.30
2022-09-09T08:24:09.094Z,23.30
2022-09-09T08:26:39.067Z,23.30
2022-09-09T08:29:08.946Z,23.30
2022-09-09T08:31:39.208Z,23.30
2022-09-09T08:34:09.024Z,23.30
2022-09-09T08:36:38.863Z,23.30
2022-09-09T08:39:09.918Z,23.30
2022-09-09T08:41:47.760Z,23.30
2022-09-09T08:44:24.684Z,23.30
2022-09-09T08:47:03.908Z,23.30
2022-09-09T08:49:56.393Z,23.30
2022-09-09T08:52:29.144Z,23.30
2022-09-09T08:55:04.614Z,23.30
2022-09-09T08:57:34.327Z,23.30
2022-09-09T09:00:02.136Z,23.30
2022-09-09T09:02:39.062Z,23.30
2022-09-09T09:05:21.172Z,23.30
2022-09-09T09:08:01.789Z,23.30
2022-09-09T09:10:47.781Z,23.30
2022-09-09T09:13:18.974Z,23.30
2022-09-09T09:15:52.230Z,23.30
2022-09-09T09:18:20.716Z,23.30
2022-09-09T09:20:56.334Z,23.30
2022-09-09T09:23:26.177Z,23.30
2022-09-09T09:26:01.473Z,23.30
2022-09-09T09:28:31.614Z,23.30
2022-09-09T09:31:05.426Z,23.30
2022-09-09T09:33:41.158Z,23.30
2022-09-09T09:36:10.237Z,23.30
2022-09-09T09:41:38.091Z,23.30
2022-09-09T09:44:07.117Z,23.30
2022-09-09T09:46:35.008Z,23.30
2022-09-09T09:49:04.936Z,23.30
2022-09-09T09:51:34.183Z,23.30
2022-09-09T09:54:16.727Z,23.30
2022-09-09T09:56:46.986Z,23.30
2022-09-09T09:59:38.638Z,23.20
2022-09-09T10:02:19.448Z,23.30
2022-09-09T10:04:47.565Z,23.20
2022-09-09T10:07:20.971Z,23.20
2022-09-09T10:09:52.895Z,23.20
2022-09-09T10:12:32.707Z,23.20
2022-09-09T10:15:09.278Z,23.20
2022-09-09T10:17:50.113Z,23.20
2022-09-09T10:20:33.973Z,23.20
2022-09-09T10:23:14.345Z,23.20
2022-09-09T10:26:03.043Z,23.20
2022-09-09T10:28:48.418Z,23.20
2022-09-09T10:31:25.261Z,23.20
2022-09-09T10:34:00.449Z,23.20
2022-09-09T10:36:29.408Z,23.20
2022-09-09T10:39:03.945Z,23.20
2022-09-09T10:41:48.392Z,23.20
2022-09-09T10:44:37.023Z,23.20
2022-09-09T10:47:28.326Z,23.20
2022-09-09T10:50:15.973Z,23.20
2022-09-09T10:52:54.531Z,23.20
2022-09-09T10:55:29.894Z,23.20
2022-09-09T10:58:00.854Z,23.20
2022-09-09T11:00:39.854Z,23.20
2022-09-09T11:03:09.675Z,23.20
2022-09-09T11:05:43.383Z,23.20
2022-09-09T11:08:16.538Z,23.20
2022-09-09T11:10:49.666Z,23.20
2022-09-09T11:13:23.424Z,23.20
2022-09-09T11:15:56.938Z,23.20
2022-09-09T11:18:25.896Z,23.20
2022-09-09T11:20:59.804Z,23.20
2022-09-09T11:23:36.796Z,23.20
2022-09-09T11:26:09.857Z,23.20
2022-09-09T11:28:49.148Z,23.10
2022-09-09T11:31:45.908Z,23.20
2022-09-09T11:34:34.483Z,23.20
2022-09-09T11:37:15.360Z,23.10
2022-09-09T11:40:12.012Z,23.10
2022-09-09T11:42:39.945Z,23.10
2022-09-09T11:45:13.857Z,23.20
2022-09-09T11:47:54.252Z,23.10
2022-09-09T11:50:34.016Z,23.10
2022-09-09T11:53:16.646Z,23.10
2022-09-09T11:55:44.455Z,23.10
2022-09-09T11:58:20.063Z,23.10
2022-09-09T12:00:49.896Z,23.10
2022-09-09T12:03:42.881Z,23.10
2022-09-09T12:06:16.338Z,23.10
2022-09-09T12:08:46.985Z,23.10
2022-09-09T12:11:26.496Z,23.10
2022-09-09T12:13:56.027Z,23.10
2022-09-09T12:16:34.122Z,23.10
2022-09-09T12:19:17.500Z,23.10
2022-09-09T12:21:53.658Z,23.10
2022-09-09T12:24:29.213Z,23.10
2022-09-09T12:27:03.860Z,23.10
2022-09-09T12:29:44.115Z,23.10
2022-09-09T12:32:15.081Z,23.10
2022-09-09T12:34:50.002Z,23.10
2022-09-09T12:37:31.315Z,23.10
2022-09-09T12:40:01.457Z,23.10
2022-09-09T12:42:29.758Z,23.10
2022-09-09T12:44:59.485Z,23.10
2022-09-09T12:47:33.970Z,23.10
2022-09-09T12:50:03.566Z,23.10
2022-09-09T12:52:37.310Z,23.10
2022-09-09T12:55:09.333Z,23.10
2022-09-09T12:57:39.417Z,23.10
2022-09-09T13:00:13.423Z,23.10
2022-09-09T13:02:51.178Z,23.10
2022-09-09T13:05:23.289Z,23.10
2022-09-09T13:07:51.449Z,23.10
2022-09-09T13:10:36.995Z,23.10
2022-09-09T13:13:16.992Z,23.10
2022-09-09T13:15:52.393Z,23.10
2022-09-09T13:18:23.937Z,23.10
2022-09-09T13:20:53.697Z,23.10
2022-09-09T13:23:23.277Z,23.10
2022-09-09T13:25:59.164Z,23.10
2022-09-09T13:28:34.316Z,23.10
2022-09-09T13:31:04.301Z,23.10
2022-09-09T13:33:35.064Z,23.10
2022-09-09T13:36:07.143Z,23.10
2022-09-09T13:38:39.178Z,23.10
2022-09-09T13:41:08.725Z,23.10
2022-09-09T13:43:40.208Z,23.10
2022-09-09T13:46:27.205Z,23.10
2022-09-09T13:48:59.003Z,23.10
2022-09-09T13:51:37.965Z,23.10
2022-09-09T13:54:07.550Z,23.10
2022-09-09T13:56:36.200Z,23.10
2022-09-09T13:59:05.208Z,23.10
2022-09-09T14:01:35.730Z,23.10
2022-09-09T14:04:04.053Z,23.10
2022-09-09T14:06:33.277Z,23.10
2022-09-09T14:09:01.248Z,23.10
2022-09-09T14:11:29.126Z,23.10
2022-09-09T14:13:56.929Z,23.10
2022-09-09T14:16:24.848Z,23.10
2022-09-09T14:18:52.689Z,23.10
2022-09-09T14:21:21.032Z,23.10
2022-09-09T14:23:50.489Z,23.10
2022-09-09T14:26:19.804Z,23.10
2022-09-09T14:28:55.999Z,23.10
2022-09-09T14:31:24.378Z,23.10
2022-09-09T14:33:53.525Z,23.10
2022-09-09T14:36:21.383Z,23.10
2022-09-09T14:38:50.729Z,23.10
2022-09-09T14:41:20.822Z,23.10
2022-09-09T14:43:48.979Z,23.10
2022-09-09T14:46:18.313Z,23.10
2022-09-09T14:48:46.330Z,23.10
2022-09-09T14:51:17.238Z,23.10
2022-09-09T14:53:46.239Z,23.10
2022-09-09T14:56:17.425Z,23.10
2022-09-09T14:58:45.781Z,23.10
2022-09-09T15:01:15.605Z,23.10
2022-09-09T15:03:45.277Z,23.10
2022-09-09T15:06:14.852Z,23.10
2022-09-09T15:08:44.887Z,23.10
2022-09-09T15:11:16.021Z,23.10
2022-09-09T15:13:45.482Z,23.10
2022-09-09T15:16:15.748Z,23.10
2022-09-09T15:18:45.832Z,23.10
2022-09-09T15:21:14.663Z,23.10
2022-09-09T15:23:42.508Z,23.10
2022-09-09T15:26:11.077Z,23.10
2022-09-09T15:28:40.763Z,23.10
2022-09-09T15:31:15.332Z,23.10
2022-09-09T15:33:44.152Z,23.10
2022-09-09T15:36:18.432Z,23.10
2022-09-09T15:38:46.687Z,23.10
2022-09-09T15:41:15.435Z,23.10
2022-09-09T15:43:47.635Z,23.10
2022-09-09T15:46:30.397Z,23.10
2022-09-09T15:49:00.569Z,23.10
2022-09-09T15:51:44.982Z,23.10
2022-09-09T15:54:14.611Z,23.10
2022-09-09T15:56:42.641Z,23.10
2022-09-09T15:59:12.274Z,23.10
2022-09-09T16:01:41.530Z,23.10
2022-09-09T16:04:09.679Z,23.10
2022-09-09T16:06:37.890Z,23.10
2022-09-09T16:09:07.543Z,23.10
2022-09-09T16:11:38.206Z,23.10
2022-09-09T16:14:07.381Z,23.10
2022-09-09T16:16:37.512Z,23.10
2022-09-09T16:19:07.931Z,23.10
2022-09-09T16:21:38.498Z,23.10
2022-09-09T16:24:07.679Z,23.10
2022-09-09T16:26:37.888Z,23.10
2022-09-09T16:29:06.149Z,23.10
2022-09-09T16:31:34.273Z,23.10
2022-09-09T16:34:04.607Z,23.10
2022-09-09T16:36:34.976Z,23.10
2022-09-09T16:39:05.193Z,23.10
2022-09-09T16:41:34.049Z,23.10
2022-09-09T16:44:03.449Z,23.10
2022-09-09T16:46:33.328Z,23.10
2022-09-09T16:49:03.823Z,23.10
2022-09-09T16:51:33.570Z,23.10
2022-09-09T16:54:03.335Z,23.10
2022-09-09T16:56:33.973Z,23.10
2022-09-09T16:59:03.131Z,23.10
2022-09-09T17:01:33.896Z,23.10
2022-09-09T17:04:05.977Z,23.10
2022-09-09T17:06:35.471Z,23.10
2022-09-09T17:09:05.573Z,23.10
2022-09-09T17:11:33.489Z,23.10
2022-09-09T17:14:02.191Z,23.10
2022-09-09T17:16:32.078Z,23.10
2022-09-09T17:19:01.286Z,23.10
2022-09-09T17:21:31.280Z,23.10
2022-09-09T17:23:59.615Z,23.10
2022-09-09T17:26:30.153Z,23.10
2022-09-09T17:29:00.044Z,23.10
2022-09-09T17:31:29.587Z,23.10
2022-09-09T17:33:58.709Z,23.10
2022-09-09T17:36:28.869Z,23.10
2022-09-09T17:38:58.509Z,23.10
2022-09-09T17:41:28.651Z,23.10
2022-09-09T17:43:58.088Z,23.10
2022-09-09T17:46:27.760Z,23.10
2022-09-09T17:48:58.336Z,23.10
2022-09-09T17:51:30.569Z,23.10
2022-09-09T17:54:01.948Z,23.10
2022-09-09T17:56:32.608Z,23.10
2022-09-09T17:59:01.391Z,23.10
2022-09-09T18:01:31.384Z,23.10
2022-09-09T18:04:01.935Z,23.10
2022-09-09T18:06:33.803Z,23.10
2022-09-09T18:09:05.857Z,23.10
2022-09-09T18:11:36.495Z,23.10
2022-09-09T18:14:06.083Z,23.10
2022-09-09T18:16:36.075Z,23.10
2022-09-09T18:19:06.306Z,23.10
2022-09-09T18:21:35.080Z,23.10
2022-09-09T18:24:06.427Z,23.10
2022-09-09T18:26:36.121Z,23.10
2022-09-09T18:29:06.697Z,23.10
2022-09-09T18:31:35.198Z,23.10
2022-09-09T18:34:05.769Z,23.10
2022-09-09T18:36:35.948Z,23.10
2022-09-09T18:39:07.211Z,23.10
2022-09-09T18:41:37.183Z,23.10
2022-09-09T18:44:08.247Z,23.10
2022-09-09T18:46:37.864Z,23.10
2022-09-09T18:49:06.764Z,23.10
2022-09-09T18:51:37.043Z,23.10
2022-09-09T18:54:09.397Z,23.10
2022-09-09T18:56:38.096Z,23.10
2022-09-09T18:59:08.840Z,23.10
2022-09-09T19:01:36.848Z,23.10
2022-09-09T19:04:06.169Z,23.10
2022-09-09T19:06:37.880Z,23.10
2022-09-09T19:09:07.441Z,23.10
2022-09-09T19:11:35.297Z,23.10
2022-09-09T19:14:07.904Z,23.10
2022-09-09T19:16:36.574Z,23.10
2022-09-09T19:19:07.219Z,23.10
2022-09-09T19:21:38.113Z,23.10
2022-09-09T19:24:11.617Z,23.10
2022-09-09T19:26:43.328Z,23.10
2022-09-09T19:29:14.392Z,23.10
2022-09-09T19:31:55.164Z,23.10
2022-09-09T19:34:30.581Z,23.10
2022-09-09T19:36:58.843Z,23.10
2022-09-09T19:39:28.096Z,23.10
2022-09-09T19:41:55.938Z,23.10
2022-09-09T19:44:23.881Z,23.10
2022-09-09T19:46:51.771Z,23.10
2022-09-09T19:49:19.669Z,23.10
2022-09-09T19:51:47.554Z,23.10
2022-09-09T19:54:15.537Z,23.10
2022-09-09T19:56:45.242Z,23.10
2022-09-09T19:59:15.750Z,23.10
2022-09-09T20:01:45.802Z,23.10
2022-09-09T20:04:15.550Z,23.10
2022-09-09T20:06:45.233Z,23.10
2022-09-09T20:09:15.929Z,23.10
2022-09-09T20:11:46.556Z,23.10
2022-09-09T20:14:15.525Z,23.10
2022-09-09T20:16:44.367Z,23.10
2022-09-09T20:19:13.517Z,23.10
2022-09-09T20:21:47.191Z,23.10
2022-09-09T20:24:17.494Z,23.10
2022-09-09T20:26:47.996Z,23.10
2022-09-09T20:29:17.921Z,23.10
2022-09-09T20:31:46.124Z,23.10
2022-09-09T20:34:16.098Z,23.10
2022-09-09T20:36:46.001Z,23.10
2022-09-09T20:39:15.858Z,23.10
2022-09-09T20:41:46.352Z,23.10
2022-09-09T20:44:16.822Z,23.10
2022-09-09T20:46:47.960Z,23.10
2022-09-09T20:49:17.336Z,23.10
2022-09-09T20:51:45.588Z,23.10
2022-09-09T20:54:15.848Z,23.10
2022-09-09T20:56:46.478Z,23.10
2022-09-09T20:59:16.101Z,23.10
2022-09-09T21:01:44.489Z,23.10
2022-09-09T21:04:12.866Z,23.10
2022-09-09T21:06:40.718Z,23.10
2022-09-09T21:09:08.821Z,23.10
2022-09-09T21:11:36.811Z,23.10
2022-09-09T21:14:06.341Z,23.10
2022-09-09T21:16:34.190Z,23.10
2022-09-09T21:19:02.011Z,23.10
2022-09-09T21:21:29.830Z,23.10
2022-09-09T21:24:00.420Z,23.10
2022-09-09T21:26:28.525Z,23.10
2022-09-09T21:28:56.541Z,23.10
2022-09-09T21:31:28.309Z,23.10
2022-09-09T21:33:56.541Z,23.10
2022-09-09T21:36:25.363Z,23.10
2022-09-09T21:38:53.182Z,23.10
2022-09-09T21:41:21.487Z,23.10
2022-09-09T21:43:53.983Z,23.10
2022-09-09T21:46:23.591Z,23.10
2022-09-09T21:48:55.499Z,23.10
2022-09-09T21:51:23.399Z,23.10
2022-09-09T21:53:51.494Z,23.10
2022-09-09T21:56:20.492Z,23.10
2022-09-09T21:58:48.477Z,23.10
2022-09-09T22:01:17.928Z,23.10
2022-09-09T22:03:46.380Z,23.10
2022-09-09T22:06:17.985Z,23.10
2022-09-09T22:08:46.692Z,23.10
2022-09-09T22:11:16.868Z,23.10
2022-09-09T22:13:45.934Z,23.10
2022-09-09T22:16:16.712Z,23.10
2022-09-09T22:18:45.596Z,23.10
2022-09-09T22:21:16.849Z,23.10
2022-09-09T22:23:47.680Z,23.10
2022-09-09T22:26:16.124Z,23.10
2022-09-09T22:28:43.943Z,23.10
2022-09-09T22:31:11.784Z,23.10
2022-09-09T22:33:39.686Z,23.10
2022-09-09T22:36:08.180Z,23.10
2022-09-09T22:38:37.482Z,23.10
2022-09-09T22:41:06.262Z,23.10
2022-09-09T22:43:34.109Z,23.10
2022-09-09T22:46:02.539Z,23.10
2022-09-09T22:48:33.767Z,23.10
2022-09-09T22:51:05.653Z,23.10
2022-09-09T22:53:34.218Z,23.10
2022-09-09T22:56:05.979Z,23.10
2022-09-09T22:58:36.496Z,23.10
2022-09-09T23:01:12.105Z,23.10
2022-09-09T23:03:42.095Z,23.10
2022-09-09T23:06:20.076Z,23.10
2022-09-09T23:08:48.898Z,23.10
2022-09-09T23:11:18.517Z,23.10
2022-09-09T23:13:51.929Z,23.10
2022-09-09T23:16:21.344Z,23.10
2022-09-09T23:18:50.381Z,23.10
2022-09-09T23:21:18.224Z,23.10
2022-09-09T23:23:47.013Z,23.10
2022-09-09T23:26:20.786Z,23.00
2022-09-09T23:28:50.385Z,23.10
2022-09-09T23:31:20.820Z,23.10
2022-09-09T23:33:48.691Z,23.10
2022-09-09T23:36:19.162Z,23.10
2022-09-09T23:38:47.311Z,23.10
2022-09-09T23:41:21.056Z,23.10
2022-09-09T23:43:49.164Z,23.10
2022-09-09T23:46:20.190Z,23.10
2022-09-09T23:48:51.588Z,23.10
2022-09-09T23:51:23.512Z,23.10
2022-09-09T23:53:53.114Z,23.10
2022-09-09T23:56:24.231Z,23.10
2022-09-09T23:58:52.625Z,23.10
